This is the latest recevied weather packets stored in our database for station/object KD9YTS-13. If no packets are shown the sender has not sent any weather packets the latest 10 day(s).
| Time | Temp. | Humidity | Pressure | Rain* | Wind** | Luminosity | Snow |
|---|---|---|---|---|---|---|---|
| 1777577783 | -17.78° C | 100% | - | 0 mm | - | - | - |
| 1777576587 | -17.78° C | 100% | - | 0 mm | - | - | - |
| 1777575383 | 8.89° C | 4% | - | 0 mm | - | - | - |
| 1777574183 | 8.33° C | 5% | - | 0 mm | - | - | - |
| 1777572987 | -17.78° C | 100% | - | 0 mm | - | - | - |
| 1777571783 | -17.78° C | 100% | - | 0 mm | - | - | - |
| 1777570582 | -17.78° C | 100% | - | 0 mm | - | - | - |
| 1777569382 | 8.33° C | 4% | - | 0 mm | - | - | - |
| 1777568183 | 8.89° C | 4% | - | 0 mm | - | - | - |
| 1777566983 | -17.78° C | 100% | - | 0 mm | - | - | - |
| 1777565783 | -17.78° C | 100% | - | 0 mm | - | - | - |
| 1777564584 | -17.78° C | 100% | - | 0 mm | - | - | - |
| 1777563382 | 7.22° C | 5% | - | 0 mm | - | - | - |
| 1777562183 | 6.67° C | 5% | - | 0 mm | - | - | - |
| 1777560982 | -17.78° C | 100% | - | 0 mm | - | - | - |
| 1777559782 | -17.78° C | 100% | - | 0 mm | - | - | - |
| 1777558583 | -17.78° C | 100% | - | 0 mm | - | - | - |
| 1777557385 | 5° C | 6% | - | 0 mm | - | - | - |
| 1777556183 | -17.78° C | 100% | - | 0 mm | - | - | - |
| 1777554983 | -17.78° C | 100% | - | 0 mm | - | - | - |
| 1777553783 | -17.78° C | 100% | - | 0 mm | - | - | - |
| 1777552583 | -17.78° C | 100% | - | 0 mm | - | - | - |
| 1777551382 | 2.78° C | 7% | - | 0 mm | - | - | - |
| 1777550183 | -17.78° C | 100% | - | 0 mm | - | - | - |
| 1777548982 | -17.78° C | 100% | - | 0 mm | - | - | - |
* Rain latest hour (hover to see other rain measurements)
** Current wind speed in m/s (hover to see current wind gust speed)